createdAt,value
2018-04-25T00:01:16.471Z,11.91
2018-04-25T00:03:42.265Z,11.89
2018-04-25T00:06:08.036Z,11.91
2018-04-25T00:08:33.816Z,11.93
2018-04-25T00:10:59.568Z,11.94
2018-04-25T00:13:25.351Z,11.94
2018-04-25T00:15:51.101Z,11.95
2018-04-25T00:18:16.889Z,11.92
2018-04-25T00:20:42.659Z,11.93
2018-04-25T00:23:08.435Z,11.95
2018-04-25T00:25:34.183Z,11.93
2018-04-25T00:27:59.995Z,11.94
2018-04-25T00:30:25.779Z,11.99
2018-04-25T00:32:51.562Z,12.01
2018-04-25T00:35:17.335Z,11.98
2018-04-25T00:37:43.108Z,11.99
2018-04-25T00:40:08.851Z,11.99
2018-04-25T00:42:34.630Z,12.00
2018-04-25T00:45:00.407Z,12.01
2018-04-25T00:47:26.184Z,12.04
2018-04-25T00:49:51.962Z,12.04
2018-04-25T00:52:17.772Z,12.03
2018-04-25T00:54:43.544Z,12.05
2018-04-25T00:57:09.316Z,12.03
2018-04-25T00:59:35.084Z,12.03
2018-04-25T01:10:37.719Z,12.05
2018-04-25T01:13:03.490Z,12.09
2018-04-25T01:15:29.410Z,12.11
2018-04-25T01:17:55.196Z,12.11
2018-04-25T01:20:20.968Z,12.13
2018-04-25T01:22:46.727Z,12.14
2018-04-25T01:25:20.592Z,12.17
2018-04-25T01:27:48.064Z,12.17
2018-04-25T01:30:14.139Z,12.19
2018-04-25T01:32:39.959Z,12.22
2018-04-25T01:35:05.759Z,12.23
2018-04-25T01:37:34.344Z,12.25
2018-04-25T01:40:00.100Z,12.25
2018-04-25T01:42:27.788Z,12.28
2018-04-25T01:44:55.474Z,12.31
2018-04-25T01:47:32.110Z,12.35
2018-04-25T01:50:02.757Z,12.37
2018-04-25T01:52:40.925Z,12.36
2018-04-25T01:55:19.111Z,12.39
2018-04-25T01:57:57.204Z,12.36
2018-04-25T02:00:35.343Z,12.39
2018-04-25T02:03:01.003Z,12.42
2018-04-25T02:05:26.996Z,12.45
2018-04-25T02:07:52.747Z,12.44
2018-04-25T02:10:18.835Z,12.46
2018-04-25T02:12:44.592Z,12.48
2018-04-25T02:15:10.580Z,12.48
2018-04-25T02:17:36.368Z,12.57
2018-04-25T02:20:02.151Z,12.58
2018-04-25T02:22:27.904Z,12.62
2018-04-25T02:24:53.663Z,12.65
2018-04-25T02:27:19.424Z,12.66
2018-04-25T02:29:45.207Z,12.69
2018-04-25T02:32:10.966Z,12.71
2018-04-25T02:34:36.731Z,12.74
2018-04-25T02:37:02.502Z,12.76
2018-04-25T02:39:28.260Z,12.77
2018-04-25T02:41:54.037Z,12.77
2018-04-25T02:44:19.789Z,12.74
2018-04-25T02:46:45.601Z,12.77
2018-04-25T02:49:11.358Z,12.79
2018-04-25T02:51:37.152Z,12.85
2018-04-25T02:54:02.916Z,12.82
2018-04-25T02:56:28.700Z,12.85
2018-04-25T02:58:54.447Z,12.84
2018-04-25T03:01:20.259Z,12.89
2018-04-25T03:03:46.016Z,12.92
2018-04-25T03:06:11.831Z,12.93
2018-04-25T03:08:37.575Z,12.97
2018-04-25T03:11:03.352Z,13.01
2018-04-25T03:13:29.104Z,13.00
2018-04-25T03:15:54.888Z,13.02
2018-04-25T03:18:20.640Z,13.02
2018-04-25T03:20:46.424Z,13.06
2018-04-25T03:23:12.180Z,13.10
2018-04-25T03:25:37.975Z,13.14
2018-04-25T03:28:03.715Z,13.16
2018-04-25T03:30:29.684Z,13.20
2018-04-25T03:32:55.487Z,13.22
2018-04-25T03:35:21.252Z,13.24
2018-04-25T03:37:46.999Z,13.27
2018-04-25T03:40:12.766Z,13.32
2018-04-25T03:42:38.534Z,13.34
2018-04-25T03:45:04.311Z,13.35
2018-04-25T03:47:30.092Z,13.38
2018-04-25T03:49:55.847Z,13.41
2018-04-25T03:52:21.616Z,13.38
2018-04-25T03:54:47.364Z,13.43
2018-04-25T03:57:13.380Z,13.47
2018-04-25T03:59:39.136Z,13.46
2018-04-25T04:02:04.911Z,13.50
2018-04-25T04:04:30.658Z,13.50
2018-04-25T04:06:56.448Z,13.49
2018-04-25T04:09:22.193Z,13.55
2018-04-25T04:11:47.967Z,13.57
2018-04-25T04:14:13.709Z,13.61
2018-04-25T04:16:39.895Z,13.64
2018-04-25T04:19:05.668Z,13.69
2018-04-25T04:21:31.430Z,13.71
2018-04-25T04:23:57.192Z,13.70
2018-04-25T04:26:22.968Z,13.75
2018-04-25T04:28:48.712Z,13.74
2018-04-25T04:31:14.490Z,13.78
2018-04-25T04:33:40.227Z,13.79
2018-04-25T04:36:06.020Z,13.78
2018-04-25T04:38:31.779Z,13.82
2018-04-25T04:40:57.560Z,13.79
2018-04-25T04:43:23.307Z,13.81
2018-04-25T04:45:49.078Z,13.83
2018-04-25T04:48:14.898Z,13.87
2018-04-25T04:50:40.648Z,13.91
2018-04-25T04:53:06.419Z,13.96
2018-04-25T04:55:32.159Z,14.00
2018-04-25T04:57:57.927Z,14.07
2018-04-25T05:00:23.707Z,14.09
2018-04-25T05:02:49.472Z,14.11
2018-04-25T05:05:15.246Z,14.18
2018-04-25T05:07:41.090Z,14.20
2018-04-25T05:10:06.895Z,14.26
2018-04-25T05:12:32.703Z,14.30
2018-04-25T05:14:58.447Z,14.37
2018-04-25T05:17:24.228Z,14.41
2018-04-25T05:19:49.983Z,14.45
2018-04-25T05:22:15.766Z,14.53
2018-04-25T05:24:41.538Z,14.56
2018-04-25T05:27:07.304Z,14.59
2018-04-25T05:29:33.067Z,14.63
2018-04-25T05:31:58.867Z,14.62
2018-04-25T05:34:24.601Z,14.62
2018-04-25T05:36:50.376Z,14.67
2018-04-25T05:39:16.152Z,14.79
2018-04-25T05:41:41.908Z,14.89
2018-04-25T05:44:07.682Z,14.92
2018-04-25T05:46:33.770Z,15.03
2018-04-25T05:48:59.539Z,15.13
2018-04-25T05:51:25.329Z,15.16
2018-04-25T05:53:51.111Z,15.25
2018-04-25T05:56:16.855Z,15.38
2018-04-25T05:58:42.624Z,15.48
2018-04-25T06:01:08.383Z,15.62
2018-04-25T06:03:34.159Z,15.71
2018-04-25T06:05:59.918Z,15.74
2018-04-25T06:08:25.700Z,15.70
2018-04-25T06:10:51.459Z,15.71
2018-04-25T06:13:17.251Z,15.73
2018-04-25T06:15:42.994Z,15.75
2018-04-25T06:18:08.812Z,15.72
2018-04-25T06:20:34.560Z,15.78
2018-04-25T06:23:00.360Z,15.83
2018-04-25T06:25:26.135Z,15.92
2018-04-25T06:27:51.906Z,16.17
2018-04-25T06:30:17.664Z,16.25
2018-04-25T06:32:43.431Z,16.19
2018-04-25T06:35:09.219Z,16.22
2018-04-25T06:37:35.017Z,16.27
2018-04-25T06:40:00.837Z,16.31
2018-04-25T06:42:26.541Z,16.32
2018-04-25T06:44:52.371Z,16.21
2018-04-25T06:47:18.086Z,16.27
2018-04-25T06:49:43.876Z,16.29
2018-04-25T06:52:09.707Z,16.18
2018-04-25T06:54:35.495Z,16.10
2018-04-25T06:57:01.606Z,16.17
2018-04-25T06:59:27.374Z,16.24
2018-04-25T07:01:53.123Z,16.22
2018-04-25T07:04:18.903Z,16.24
2018-04-25T07:06:44.645Z,16.19
2018-04-25T07:09:10.428Z,16.21
2018-04-25T07:11:36.196Z,16.28
2018-04-25T07:14:02.076Z,16.46
2018-04-25T07:16:27.763Z,16.58
2018-04-25T07:18:53.540Z,16.66
2018-04-25T07:21:19.300Z,16.66
2018-04-25T07:23:45.154Z,16.56
2018-04-25T07:26:10.853Z,16.46
2018-04-25T07:28:36.648Z,16.60
2018-04-25T07:31:02.390Z,16.73
2018-04-25T07:33:28.185Z,16.77
2018-04-25T07:35:53.948Z,16.77
2018-04-25T07:38:19.727Z,16.81
2018-04-25T07:40:45.472Z,16.79
2018-04-25T07:43:11.266Z,16.93
2018-04-25T07:45:37.360Z,17.04
2018-04-25T07:48:03.279Z,16.99
2018-04-25T07:50:29.067Z,16.87
2018-04-25T07:52:54.820Z,16.89
2018-04-25T07:55:20.627Z,17.20
2018-04-25T07:57:46.468Z,17.50
2018-04-25T08:00:12.164Z,17.81
2018-04-25T08:02:37.923Z,17.83
2018-04-25T08:05:03.693Z,17.78
2018-04-25T08:07:29.449Z,17.71
2018-04-25T08:09:55.213Z,17.61
2018-04-25T08:12:33.439Z,17.38
2018-04-25T08:15:11.550Z,17.27
2018-04-25T08:17:49.606Z,17.12
2018-04-25T08:20:27.676Z,17.01
2018-04-25T08:22:53.439Z,17.05
2018-04-25T08:25:19.230Z,17.03
2018-04-25T08:27:44.975Z,17.02
2018-04-25T08:30:10.766Z,16.94
2018-04-25T08:32:36.511Z,16.93
2018-04-25T08:35:02.284Z,16.90
2018-04-25T08:37:28.051Z,17.00
2018-04-25T08:39:53.827Z,17.15
2018-04-25T08:42:19.581Z,17.35
2018-04-25T08:44:45.412Z,17.55
2018-04-25T08:47:11.135Z,17.68
2018-04-25T08:49:36.939Z,17.64
2018-04-25T08:52:02.712Z,17.55
2018-04-25T08:54:28.476Z,17.48
2018-04-25T08:56:54.302Z,17.56
2018-04-25T08:59:20.064Z,17.58
2018-04-25T09:01:45.835Z,17.66
2018-04-25T09:04:11.604Z,17.69
2018-04-25T09:06:37.368Z,17.61
2018-04-25T09:09:03.139Z,17.58
2018-04-25T09:11:28.903Z,17.48
2018-04-25T09:13:54.661Z,17.37
2018-04-25T09:16:20.440Z,17.32
2018-04-25T09:18:46.230Z,17.30
2018-04-25T09:21:11.980Z,17.18
2018-04-25T09:23:37.987Z,17.24
2018-04-25T09:26:03.760Z,17.29
2018-04-25T09:28:29.515Z,17.52
2018-04-25T09:30:55.274Z,17.61
2018-04-25T09:33:21.301Z,17.71
2018-04-25T09:35:47.084Z,17.63
2018-04-25T09:38:12.830Z,17.75
2018-04-25T09:40:38.616Z,17.58
2018-04-25T09:43:04.386Z,17.71
2018-04-25T09:45:30.159Z,17.70
2018-04-25T09:47:55.979Z,17.27
2018-04-25T09:50:21.722Z,17.03
2018-04-25T09:52:47.479Z,16.60
2018-04-25T09:55:13.268Z,16.32
2018-04-25T09:57:39.101Z,16.08
2018-04-25T10:00:04.802Z,16.00
2018-04-25T10:02:32.559Z,16.04
2018-04-25T10:04:58.336Z,15.85
2018-04-25T10:07:24.099Z,15.88
2018-04-25T10:09:49.862Z,15.82
2018-04-25T10:12:15.615Z,15.65
2018-04-25T10:14:41.399Z,15.50
2018-04-25T10:17:07.228Z,15.34
2018-04-25T10:19:32.971Z,15.41
2018-04-25T10:21:58.754Z,15.44
2018-04-25T10:24:24.512Z,15.45
2018-04-25T10:26:50.320Z,15.60
2018-04-25T10:29:16.132Z,15.77
2018-04-25T10:31:41.884Z,15.73
2018-04-25T10:34:07.640Z,15.88
2018-04-25T10:36:33.455Z,16.09
2018-04-25T10:38:59.276Z,16.44
2018-04-25T10:41:25.000Z,16.27
2018-04-25T10:43:50.782Z,15.84
2018-04-25T10:46:16.551Z,15.97
2018-04-25T10:48:42.328Z,15.86
2018-04-25T10:51:08.082Z,15.71
2018-04-25T10:53:33.857Z,15.53
2018-04-25T10:55:59.805Z,15.55
2018-04-25T10:58:25.575Z,15.45
2018-04-25T11:00:51.330Z,15.36
2018-04-25T11:03:17.135Z,14.92
2018-04-25T11:05:42.875Z,14.79
2018-04-25T11:08:08.631Z,14.62
2018-04-25T11:10:34.437Z,14.58
2018-04-25T11:13:00.189Z,14.53
2018-04-25T11:15:25.952Z,14.42
2018-04-25T11:17:51.710Z,14.29
2018-04-25T11:20:17.496Z,14.29
2018-04-25T11:22:43.305Z,14.21
2018-04-25T11:25:09.068Z,14.15
2018-04-25T11:27:34.859Z,13.98
2018-04-25T11:30:00.636Z,13.89
2018-04-25T11:32:26.397Z,13.70
2018-04-25T11:34:52.159Z,13.60
2018-04-25T11:37:17.938Z,13.51
2018-04-25T11:39:43.795Z,13.46
2018-04-25T11:42:09.588Z,13.19
2018-04-25T11:44:35.371Z,13.03
2018-04-25T11:47:01.152Z,13.04
2018-04-25T11:49:26.900Z,13.10
2018-04-25T11:51:52.656Z,12.87
2018-04-25T11:54:18.408Z,12.80
2018-04-25T11:56:44.255Z,12.88
2018-04-25T11:59:10.036Z,12.95
2018-04-25T12:01:35.783Z,12.95
2018-04-25T12:04:01.583Z,12.97
2018-04-25T12:06:27.447Z,13.06
2018-04-25T12:08:53.204Z,12.81
2018-04-25T12:11:18.971Z,12.74
2018-04-25T12:13:44.747Z,12.86
2018-04-25T12:16:10.532Z,13.04
2018-04-25T12:18:36.291Z,13.16
2018-04-25T12:21:02.042Z,13.15
2018-04-25T12:23:27.808Z,13.07
2018-04-25T12:31:45.557Z,13.04
2018-04-25T12:34:11.320Z,13.08
2018-04-25T12:36:37.089Z,13.03
2018-04-25T12:39:02.874Z,13.05
2018-04-25T12:41:28.640Z,12.99
2018-04-25T12:43:54.409Z,13.02
2018-04-25T12:46:20.179Z,13.10
2018-04-25T12:48:45.927Z,13.18
2018-04-25T12:51:11.708Z,13.40
2018-04-25T12:53:37.703Z,13.61
2018-04-25T12:56:03.463Z,13.98
2018-04-25T12:58:29.263Z,13.99
2018-04-25T13:00:55.082Z,14.04
2018-04-25T13:03:20.843Z,13.98
2018-04-25T13:05:46.589Z,13.88
2018-04-25T13:08:12.373Z,13.65
2018-04-25T13:10:38.175Z,13.60
2018-04-25T13:13:03.927Z,13.36
2018-04-25T13:15:29.700Z,13.42
2018-04-25T13:17:55.488Z,13.56
2018-04-25T13:20:21.293Z,13.77
2018-04-25T13:22:47.035Z,13.94
2018-04-25T13:25:12.803Z,14.01
2018-04-25T13:27:38.564Z,14.15
2018-04-25T13:30:04.356Z,14.46
2018-04-25T13:32:30.124Z,14.59
2018-04-25T13:34:55.916Z,14.48
2018-04-25T13:37:21.685Z,14.24
2018-04-25T13:39:47.450Z,14.18
2018-04-25T13:42:13.195Z,14.12
2018-04-25T13:44:38.969Z,14.18
2018-04-25T13:47:04.773Z,14.34
2018-04-25T13:49:30.599Z,14.42
2018-04-25T13:51:56.340Z,14.34
2018-04-25T13:54:22.104Z,14.21
2018-04-25T13:56:47.928Z,14.26
2018-04-25T13:59:13.696Z,14.40
2018-04-25T14:01:39.481Z,14.52
2018-04-25T14:04:05.243Z,14.65
2018-04-25T14:06:30.996Z,14.61
2018-04-25T14:08:56.752Z,14.60
2018-04-25T14:11:22.531Z,14.52
2018-04-25T14:13:48.288Z,14.37
2018-04-25T14:16:14.051Z,14.24
2018-04-25T14:18:39.828Z,14.31
2018-04-25T14:21:05.595Z,14.35
2018-04-25T14:23:31.367Z,14.48
2018-04-25T14:25:57.117Z,14.49
2018-04-25T14:28:22.958Z,14.46
2018-04-25T14:30:48.756Z,14.41
2018-04-25T14:33:14.505Z,14.35
2018-04-25T14:35:40.267Z,14.14
2018-04-25T14:38:06.016Z,14.03
2018-04-25T14:40:31.816Z,14.03
2018-04-25T14:42:57.568Z,14.01
2018-04-25T14:45:23.339Z,14.05
2018-04-25T14:47:49.091Z,14.16
2018-04-25T14:50:14.888Z,14.22
2018-04-25T14:52:40.641Z,14.30
2018-04-25T14:55:06.432Z,14.39
2018-04-25T14:57:32.175Z,14.36
2018-04-25T14:59:57.963Z,14.62
2018-04-25T15:02:23.707Z,14.82
2018-04-25T15:04:50.078Z,14.70
2018-04-25T15:07:15.851Z,14.68
2018-04-25T15:09:41.603Z,14.76
2018-04-25T15:12:07.362Z,14.76
2018-04-25T15:14:33.127Z,14.77
2018-04-25T15:16:58.909Z,14.83
2018-04-25T15:19:24.685Z,14.81
2018-04-25T15:21:50.436Z,14.96
2018-04-25T15:24:16.208Z,14.98
2018-04-25T15:26:41.987Z,14.59
2018-04-25T15:29:07.730Z,14.74
2018-04-25T15:31:33.711Z,14.78
2018-04-25T15:33:59.464Z,14.81
2018-04-25T15:36:25.229Z,14.61
2018-04-25T15:38:50.966Z,14.67
2018-04-25T15:41:16.758Z,14.64
2018-04-25T15:43:42.511Z,14.67
2018-04-25T15:46:08.291Z,14.69
2018-04-25T15:48:34.055Z,14.87
2018-04-25T15:50:59.830Z,14.95
2018-04-25T15:53:25.666Z,14.95
2018-04-25T15:55:51.387Z,14.94
2018-04-25T15:58:17.131Z,15.02
2018-04-25T16:00:42.918Z,14.99
2018-04-25T16:03:08.664Z,15.03
2018-04-25T16:05:34.443Z,15.05
2018-04-25T16:08:00.183Z,15.03
2018-04-25T16:10:25.968Z,14.81
2018-04-25T16:12:51.719Z,14.74
2018-04-25T16:15:17.503Z,14.67
2018-04-25T16:17:43.242Z,14.56
2018-04-25T16:20:08.990Z,14.40
2018-04-25T16:22:34.765Z,14.62
2018-04-25T16:25:00.903Z,14.83
2018-04-25T16:27:26.672Z,14.74
2018-04-25T16:29:52.440Z,14.78
2018-04-25T16:32:18.195Z,14.74
2018-04-25T16:34:43.966Z,14.70
2018-04-25T16:37:09.723Z,14.66
2018-04-25T16:39:35.479Z,14.57
2018-04-25T16:42:01.255Z,14.45
2018-04-25T16:44:27.020Z,14.35
2018-04-25T16:46:53.088Z,14.35
2018-04-25T16:49:18.864Z,14.35
2018-04-25T16:51:44.623Z,14.31
2018-04-25T16:54:10.384Z,14.28
2018-04-25T16:56:36.456Z,14.22
2018-04-25T16:59:02.228Z,14.26
2018-04-25T17:01:28.027Z,14.33
2018-04-25T17:03:53.776Z,14.35
2018-04-25T17:06:20.107Z,14.39
2018-04-25T17:08:45.860Z,14.38
2018-04-25T17:11:11.614Z,14.35
2018-04-25T17:13:37.371Z,14.31
2018-04-25T17:16:03.179Z,14.26
2018-04-25T17:18:28.924Z,14.15
2018-04-25T17:20:54.680Z,14.13
2018-04-25T17:23:20.429Z,14.11
2018-04-25T17:25:46.215Z,14.01
2018-04-25T17:28:11.943Z,14.01
2018-04-25T17:30:37.686Z,14.02
2018-04-25T17:33:03.461Z,14.08
2018-04-25T17:35:29.387Z,14.11
2018-04-25T17:37:55.188Z,14.09
2018-04-25T17:40:20.951Z,14.09
2018-04-25T17:42:46.721Z,14.10
2018-04-25T17:45:12.466Z,14.00
2018-04-25T17:47:38.455Z,13.98
2018-04-25T17:50:04.220Z,13.97
2018-04-25T17:52:30.015Z,13.93
2018-04-25T17:54:55.812Z,13.86
2018-04-25T17:57:21.580Z,13.78
2018-04-25T17:59:47.349Z,13.74
2018-04-25T18:02:13.357Z,13.69
2018-04-25T18:04:39.123Z,13.69
2018-04-25T18:07:04.915Z,13.69
2018-04-25T18:09:30.658Z,13.63
2018-04-25T18:11:56.574Z,13.65
2018-04-25T18:14:22.380Z,13.64
2018-04-25T18:16:48.194Z,13.64
2018-04-25T18:19:13.906Z,13.62
2018-04-25T18:21:39.680Z,13.60
2018-04-25T18:24:05.435Z,13.57
2018-04-25T18:26:31.444Z,13.58
2018-04-25T18:28:57.236Z,13.57
2018-04-25T18:31:23.008Z,13.54
2018-04-25T18:33:48.767Z,13.52
2018-04-25T18:36:14.527Z,13.40
2018-04-25T18:38:40.285Z,13.10
2018-04-25T18:41:06.075Z,12.71
2018-04-25T18:43:31.888Z,12.50
2018-04-25T18:45:57.632Z,12.31
2018-04-25T18:48:23.414Z,12.03
2018-04-25T18:50:49.172Z,11.85
2018-04-25T18:53:14.987Z,11.77
2018-04-25T18:55:40.727Z,11.68
2018-04-25T18:58:06.688Z,11.63
2018-04-25T19:00:32.442Z,11.61
2018-04-25T19:02:58.215Z,11.53
2018-04-25T19:05:23.967Z,11.42
2018-04-25T19:07:49.727Z,11.28
2018-04-25T19:10:15.503Z,11.27
2018-04-25T19:12:41.320Z,11.19
2018-04-25T19:15:07.080Z,11.12
2018-04-25T19:17:32.902Z,11.07
2018-04-25T19:19:58.672Z,11.12
2018-04-25T19:22:31.328Z,11.23
2018-04-25T19:24:57.082Z,11.29
2018-04-25T19:27:22.871Z,11.32
2018-04-25T19:29:48.629Z,11.37
2018-04-25T19:32:14.416Z,11.40
2018-04-25T19:34:40.159Z,11.45
2018-04-25T19:37:05.950Z,11.46
2018-04-25T19:39:31.698Z,11.42
2018-04-25T19:41:57.474Z,11.46
2018-04-25T19:44:23.243Z,11.47
2018-04-25T19:46:49.004Z,11.47
2018-04-25T19:49:14.815Z,11.42
2018-04-25T19:51:40.786Z,11.41
2018-04-25T19:54:06.567Z,11.42
2018-04-25T19:56:32.303Z,11.40
2018-04-25T19:58:58.071Z,11.38
2018-04-25T20:01:23.843Z,11.35
2018-04-25T20:03:49.631Z,11.27
2018-04-25T20:06:15.399Z,11.30
2018-04-25T20:08:41.157Z,11.27
2018-04-25T20:11:06.930Z,11.23
2018-04-25T20:13:32.720Z,11.23
2018-04-25T20:15:58.480Z,11.24
2018-04-25T20:18:24.235Z,11.15
2018-04-25T20:20:49.984Z,11.03
2018-04-25T20:23:15.751Z,10.93
2018-04-25T20:25:41.526Z,10.80
2018-04-25T20:28:07.340Z,10.71
2018-04-25T20:30:33.096Z,10.62
2018-04-25T20:32:58.903Z,10.70
2018-04-25T20:35:24.697Z,10.74
2018-04-25T20:37:50.505Z,10.77
2018-04-25T20:40:16.263Z,10.80
2018-04-25T20:42:42.037Z,10.79
2018-04-25T20:45:07.790Z,10.80
2018-04-25T20:47:33.605Z,10.76
2018-04-25T20:49:59.359Z,10.69
2018-04-25T20:52:25.112Z,10.62
2018-04-25T20:54:50.898Z,10.54
2018-04-25T20:57:16.715Z,10.46
2018-04-25T20:59:42.515Z,10.46
2018-04-25T21:02:08.308Z,10.48
2018-04-25T21:04:34.078Z,10.50
2018-04-25T21:06:59.831Z,10.48
2018-04-25T21:09:25.626Z,10.38
2018-04-25T21:11:51.367Z,10.31
2018-04-25T21:14:17.141Z,10.22
2018-04-25T21:16:42.895Z,10.19
2018-04-25T21:19:08.676Z,10.18
2018-04-25T21:21:34.426Z,10.09
2018-04-25T21:24:00.264Z,10.02
2018-04-25T21:26:25.951Z,10.00
2018-04-25T21:28:51.727Z,9.99
2018-04-25T21:31:17.539Z,9.93
2018-04-25T21:33:43.253Z,9.91
2018-04-25T21:36:08.995Z,9.88
2018-04-25T21:38:34.784Z,9.81
2018-04-25T21:41:00.538Z,9.81
2018-04-25T21:43:26.300Z,9.83
2018-04-25T21:45:52.048Z,9.82
2018-04-25T21:48:17.996Z,9.78
2018-04-25T21:50:43.759Z,9.79
2018-04-25T21:53:09.537Z,9.76
2018-04-25T21:55:35.295Z,9.78
2018-04-25T21:58:01.176Z,9.74
2018-04-25T22:00:26.887Z,9.69
2018-04-25T22:02:52.653Z,9.70
2018-04-25T22:05:18.398Z,9.68
2018-04-25T22:07:44.148Z,9.63
2018-04-25T22:10:09.923Z,9.62
2018-04-25T22:12:35.691Z,9.59
2018-04-25T22:15:01.459Z,9.52
2018-04-25T22:17:27.245Z,9.49
2018-04-25T22:19:53.023Z,9.47
2018-04-25T22:22:18.771Z,9.50
2018-04-25T22:24:44.535Z,9.48
2018-04-25T22:27:10.301Z,9.49
2018-04-25T22:29:36.067Z,9.52
2018-04-25T22:32:01.817Z,9.47
2018-04-25T22:34:27.589Z,9.48
2018-04-25T22:36:53.347Z,9.48
2018-04-25T22:39:19.123Z,9.46
2018-04-25T22:41:44.871Z,9.42
2018-04-25T22:44:10.646Z,9.36
2018-04-25T22:46:36.419Z,9.35
2018-04-25T22:49:02.211Z,9.35
2018-04-25T22:51:27.960Z,9.34
2018-04-25T22:59:38.412Z,9.31
2018-04-25T23:02:04.195Z,9.30
2018-04-25T23:04:29.969Z,9.29
2018-04-25T23:06:55.715Z,9.28
2018-04-25T23:09:21.483Z,9.30
2018-04-25T23:11:47.227Z,9.27
2018-04-25T23:14:13.024Z,9.24
2018-04-25T23:16:38.763Z,9.24
2018-04-25T23:19:04.563Z,9.22
2018-04-25T23:21:30.299Z,9.17
2018-04-25T23:23:56.077Z,9.15
2018-04-25T23:26:21.832Z,9.14
2018-04-25T23:28:47.591Z,9.14
2018-04-25T23:31:13.347Z,9.12
2018-04-25T23:33:39.708Z,9.12
2018-04-25T23:36:05.495Z,9.12
2018-04-25T23:38:31.259Z,9.11
2018-04-25T23:40:57.021Z,9.08
2018-04-25T23:43:22.770Z,9.04
2018-04-25T23:45:49.416Z,9.03
2018-04-25T23:48:15.171Z,9.02
2018-04-25T23:50:40.952Z,9.01
2018-04-25T23:53:06.789Z,9.00
2018-04-25T23:55:32.579Z,8.98
2018-04-25T23:57:58.356Z,8.95
